sensor_id;sensor_type;location;lat;lon;timestamp;temperature;humidity
58582;DHT22;44361;51.476;5.700;2022-10-17T00:00:28;13.80;99.90
58582;DHT22;44361;51.476;5.700;2022-10-17T00:02:55;13.80;99.90
58582;DHT22;44361;51.476;5.700;2022-10-17T00:05:21;13.80;99.90
58582;DHT22;44361;51.476;5.700;2022-10-17T00:07:46;13.70;99.90
58582;DHT22;44361;51.476;5.700;2022-10-17T00:10:12;13.70;99.90
58582;DHT22;44361;51.476;5.700;2022-10-17T00:12:38;13.80;99.90
58582;DHT22;44361;51.476;5.700;2022-10-17T00:15:05;13.80;99.90
58582;DHT22;44361;51.476;5.700;2022-10-17T00:17:31;13.90;99.90
58582;DHT22;44361;51.476;5.700;2022-10-17T00:19:58;13.80;99.90
58582;DHT22;44361;51.476;5.700;2022-10-17T00:22:24;13.90;99.90
58582;DHT22;44361;51.476;5.700;2022-10-17T00:24:50;13.90;99.90
58582;DHT22;44361;51.476;5.700;2022-10-17T00:27:15;13.80;99.90
58582;DHT22;44361;51.476;5.700;2022-10-17T00:29:41;13.80;99.90
58582;DHT22;44361;51.476;5.700;2022-10-17T00:32:06;13.80;99.90
58582;DHT22;44361;51.476;5.700;2022-10-17T00:34:32;13.90;99.90
58582;DHT22;44361;51.476;5.700;2022-10-17T00:36:57;13.80;99.90
58582;DHT22;44361;51.476;5.700;2022-10-17T00:39:23;13.80;99.90
58582;DHT22;44361;51.476;5.700;2022-10-17T00:41:48;13.80;99.90
58582;DHT22;44361;51.476;5.700;2022-10-17T00:47:00;13.80;99.90
58582;DHT22;44361;51.476;5.700;2022-10-17T00:49:29;13.90;99.90
58582;DHT22;44361;51.476;5.700;2022-10-17T00:51:59;13.80;99.90
58582;DHT22;44361;51.476;5.700;2022-10-17T00:54:29;13.80;99.90
58582;DHT22;44361;51.476;5.700;2022-10-17T00:56:56;13.80;99.90
58582;DHT22;44361;51.476;5.700;2022-10-17T00:59:22;13.80;99.90
58582;DHT22;44361;51.476;5.700;2022-10-17T01:02:11;13.80;99.90
58582;DHT22;44361;51.476;5.700;2022-10-17T01:04:40;13.70;99.90
58582;DHT22;44361;51.476;5.700;2022-10-17T01:07:06;13.70;99.90
58582;DHT22;44361;51.476;5.700;2022-10-17T01:09:32;13.80;99.90
58582;DHT22;44361;51.476;5.700;2022-10-17T01:20:50;14.00;99.90
58582;DHT22;44361;51.476;5.700;2022-10-17T01:31:54;14.00;99.90
58582;DHT22;44361;51.476;5.700;2022-10-17T01:34:39;14.10;99.90
58582;DHT22;44361;51.476;5.700;2022-10-17T01:37:29;14.20;99.90
58582;DHT22;44361;51.476;5.700;2022-10-17T01:40:13;14.20;99.90
58582;DHT22;44361;51.476;5.700;2022-10-17T01:42:57;14.10;99.90
58582;DHT22;44361;51.476;5.700;2022-10-17T01:45:40;14.10;99.90
58582;DHT22;44361;51.476;5.700;2022-10-17T01:48:16;14.10;99.90
58582;DHT22;44361;51.476;5.700;2022-10-17T01:50:47;14.00;99.90
58582;DHT22;44361;51.476;5.700;2022-10-17T01:53:18;14.00;99.90
58582;DHT22;44361;51.476;5.700;2022-10-17T01:55:45;14.00;99.90
58582;DHT22;44361;51.476;5.700;2022-10-17T01:58:16;13.90;99.90
58582;DHT22;44361;51.476;5.700;2022-10-17T02:00:45;13.90;99.90
58582;DHT22;44361;51.476;5.700;2022-10-17T02:03:16;13.90;99.90
58582;DHT22;44361;51.476;5.700;2022-10-17T02:05:43;13.90;99.90
58582;DHT22;44361;51.476;5.700;2022-10-17T02:08:10;13.90;99.90
58582;DHT22;44361;51.476;5.700;2022-10-17T02:10:38;13.90;99.90
58582;DHT22;44361;51.476;5.700;2022-10-17T02:13:53;13.80;99.90
58582;DHT22;44361;51.476;5.700;2022-10-17T02:30:05;13.80;99.90
58582;DHT22;44361;51.476;5.700;2022-10-17T02:33:06;13.80;99.90
58582;DHT22;44361;51.476;5.700;2022-10-17T02:35:27;13.80;99.90
58582;DHT22;44361;51.476;5.700;2022-10-17T02:37:55;13.80;99.90
58582;DHT22;44361;51.476;5.700;2022-10-17T02:40:23;13.90;99.90
58582;DHT22;44361;51.476;5.700;2022-10-17T02:42:50;13.90;99.90
58582;DHT22;44361;51.476;5.700;2022-10-17T02:45:18;13.80;99.90
58582;DHT22;44361;51.476;5.700;2022-10-17T02:47:53;13.80;99.90
58582;DHT22;44361;51.476;5.700;2022-10-17T02:50:26;13.80;99.90
58582;DHT22;44361;51.476;5.700;2022-10-17T02:53:16;13.80;99.90
58582;DHT22;44361;51.476;5.700;2022-10-17T02:55:53;13.80;99.90
58582;DHT22;44361;51.476;5.700;2022-10-17T02:58:26;13.70;99.90
58582;DHT22;44361;51.476;5.700;2022-10-17T03:00:53;13.70;99.90
58582;DHT22;44361;51.476;5.700;2022-10-17T03:03:21;13.70;99.90
58582;DHT22;44361;51.476;5.700;2022-10-17T03:05:47;13.70;99.90
58582;DHT22;44361;51.476;5.700;2022-10-17T03:08:12;13.70;99.90
58582;DHT22;44361;51.476;5.700;2022-10-17T03:10:38;13.70;99.90
58582;DHT22;44361;51.476;5.700;2022-10-17T03:13:04;13.70;99.90
58582;DHT22;44361;51.476;5.700;2022-10-17T03:15:29;13.70;99.90
58582;DHT22;44361;51.476;5.700;2022-10-17T03:17:55;13.70;99.90
58582;DHT22;44361;51.476;5.700;2022-10-17T03:20:20;13.80;99.90
58582;DHT22;44361;51.476;5.700;2022-10-17T03:22:46;13.80;99.90
58582;DHT22;44361;51.476;5.700;2022-10-17T03:25:11;13.80;99.90
58582;DHT22;44361;51.476;5.700;2022-10-17T03:27:37;13.80;99.90
58582;DHT22;44361;51.476;5.700;2022-10-17T03:30:03;13.90;99.90
58582;DHT22;44361;51.476;5.700;2022-10-17T03:32:28;13.80;99.90
58582;DHT22;44361;51.476;5.700;2022-10-17T03:34:54;13.90;99.90
58582;DHT22;44361;51.476;5.700;2022-10-17T03:37:19;14.00;99.90
58582;DHT22;44361;51.476;5.700;2022-10-17T03:39:45;14.00;99.90
58582;DHT22;44361;51.476;5.700;2022-10-17T03:42:10;14.00;99.90
58582;DHT22;44361;51.476;5.700;2022-10-17T03:44:36;14.00;99.90
58582;DHT22;44361;51.476;5.700;2022-10-17T03:47:01;14.00;99.90
58582;DHT22;44361;51.476;5.700;2022-10-17T03:49:27;14.00;99.90
58582;DHT22;44361;51.476;5.700;2022-10-17T03:51:52;14.00;99.90
58582;DHT22;44361;51.476;5.700;2022-10-17T03:54:18;14.00;99.90
58582;DHT22;44361;51.476;5.700;2022-10-17T03:56:43;14.00;99.90
58582;DHT22;44361;51.476;5.700;2022-10-17T03:59:13;14.00;99.90
58582;DHT22;44361;51.476;5.700;2022-10-17T04:01:39;14.10;99.90
58582;DHT22;44361;51.476;5.700;2022-10-17T04:04:04;14.10;99.90
58582;DHT22;44361;51.476;5.700;2022-10-17T04:06:30;14.10;99.90
58582;DHT22;44361;51.476;5.700;2022-10-17T04:08:56;14.20;99.90
58582;DHT22;44361;51.476;5.700;2022-10-17T04:11:22;14.20;99.90
58582;DHT22;44361;51.476;5.700;2022-10-17T04:13:52;14.20;99.90
58582;DHT22;44361;51.476;5.700;2022-10-17T04:16:19;14.30;99.90
58582;DHT22;44361;51.476;5.700;2022-10-17T04:18:44;14.30;99.90
58582;DHT22;44361;51.476;5.700;2022-10-17T04:21:11;14.40;99.90
58582;DHT22;44361;51.476;5.700;2022-10-17T04:23:37;14.40;99.90
58582;DHT22;44361;51.476;5.700;2022-10-17T04:26:03;14.50;99.90
58582;DHT22;44361;51.476;5.700;2022-10-17T04:28:30;14.60;99.90
58582;DHT22;44361;51.476;5.700;2022-10-17T04:31:01;14.70;99.90
58582;DHT22;44361;51.476;5.700;2022-10-17T04:33:27;14.70;99.90
58582;DHT22;44361;51.476;5.700;2022-10-17T04:36:00;14.70;99.90
58582;DHT22;44361;51.476;5.700;2022-10-17T04:38:28;14.80;99.90
58582;DHT22;44361;51.476;5.700;2022-10-17T04:40:56;14.80;99.90
58582;DHT22;44361;51.476;5.700;2022-10-17T04:43:22;14.80;99.90
58582;DHT22;44361;51.476;5.700;2022-10-17T04:45:47;14.80;99.90
58582;DHT22;44361;51.476;5.700;2022-10-17T04:48:13;14.80;99.90
58582;DHT22;44361;51.476;5.700;2022-10-17T04:50:38;14.90;99.90
58582;DHT22;44361;51.476;5.700;2022-10-17T04:53:04;14.90;99.90
58582;DHT22;44361;51.476;5.700;2022-10-17T04:55:29;14.90;99.90
58582;DHT22;44361;51.476;5.700;2022-10-17T04:57:55;14.90;99.90
58582;DHT22;44361;51.476;5.700;2022-10-17T05:00:20;14.90;99.90
58582;DHT22;44361;51.476;5.700;2022-10-17T05:02:46;14.90;99.90
58582;DHT22;44361;51.476;5.700;2022-10-17T05:05:11;14.90;99.90
58582;DHT22;44361;51.476;5.700;2022-10-17T05:07:40;14.80;99.90
58582;DHT22;44361;51.476;5.700;2022-10-17T05:10:06;14.90;99.90
58582;DHT22;44361;51.476;5.700;2022-10-17T05:12:32;14.90;99.90
58582;DHT22;44361;51.476;5.700;2022-10-17T05:14:57;14.90;99.90
58582;DHT22;44361;51.476;5.700;2022-10-17T05:17:23;14.90;99.90
58582;DHT22;44361;51.476;5.700;2022-10-17T05:19:49;14.90;99.90
58582;DHT22;44361;51.476;5.700;2022-10-17T05:22:14;14.80;99.90
58582;DHT22;44361;51.476;5.700;2022-10-17T05:24:40;14.80;99.90
58582;DHT22;44361;51.476;5.700;2022-10-17T05:27:05;14.80;99.90
58582;DHT22;44361;51.476;5.700;2022-10-17T05:29:31;14.90;99.90
58582;DHT22;44361;51.476;5.700;2022-10-17T05:31:56;15.00;99.90
58582;DHT22;44361;51.476;5.700;2022-10-17T05:34:22;15.00;99.90
58582;DHT22;44361;51.476;5.700;2022-10-17T05:36:49;14.90;99.90
58582;DHT22;44361;51.476;5.700;2022-10-17T05:39:14;15.00;99.90
58582;DHT22;44361;51.476;5.700;2022-10-17T05:41:44;15.00;99.90
58582;DHT22;44361;51.476;5.700;2022-10-17T05:44:10;15.00;99.90
58582;DHT22;44361;51.476;5.700;2022-10-17T05:46:36;15.00;99.90
58582;DHT22;44361;51.476;5.700;2022-10-17T05:49:01;15.00;99.90
58582;DHT22;44361;51.476;5.700;2022-10-17T05:51:27;15.00;99.90
58582;DHT22;44361;51.476;5.700;2022-10-17T05:53:52;15.00;99.90
58582;DHT22;44361;51.476;5.700;2022-10-17T05:56:18;15.00;99.90
58582;DHT22;44361;51.476;5.700;2022-10-17T05:58:44;15.10;99.90
58582;DHT22;44361;51.476;5.700;2022-10-17T06:01:11;15.10;99.90
58582;DHT22;44361;51.476;5.700;2022-10-17T06:03:37;15.10;99.90
58582;DHT22;44361;51.476;5.700;2022-10-17T06:06:05;15.10;99.90
58582;DHT22;44361;51.476;5.700;2022-10-17T06:08:30;15.00;99.90
58582;DHT22;44361;51.476;5.700;2022-10-17T06:10:56;15.00;99.90
58582;DHT22;44361;51.476;5.700;2022-10-17T06:13:22;15.00;99.90
58582;DHT22;44361;51.476;5.700;2022-10-17T06:15:47;15.00;99.90
58582;DHT22;44361;51.476;5.700;2022-10-17T06:18:13;15.00;99.90
58582;DHT22;44361;51.476;5.700;2022-10-17T06:20:38;15.10;99.90
58582;DHT22;44361;51.476;5.700;2022-10-17T06:23:04;15.10;99.90
58582;DHT22;44361;51.476;5.700;2022-10-17T06:25:31;15.10;99.90
58582;DHT22;44361;51.476;5.700;2022-10-17T06:27:56;15.20;99.90
58582;DHT22;44361;51.476;5.700;2022-10-17T06:30:22;15.20;99.90
58582;DHT22;44361;51.476;5.700;2022-10-17T06:32:48;15.20;99.90
58582;DHT22;44361;51.476;5.700;2022-10-17T06:35:13;15.20;99.90
58582;DHT22;44361;51.476;5.700;2022-10-17T06:37:39;15.30;99.90
58582;DHT22;44361;51.476;5.700;2022-10-17T06:40:05;15.30;99.90
58582;DHT22;44361;51.476;5.700;2022-10-17T06:42:33;15.30;99.90
58582;DHT22;44361;51.476;5.700;2022-10-17T06:44:58;15.40;99.90
58582;DHT22;44361;51.476;5.700;2022-10-17T06:47:24;15.30;99.90
58582;DHT22;44361;51.476;5.700;2022-10-17T06:49:49;15.50;99.90
58582;DHT22;44361;51.476;5.700;2022-10-17T06:52:15;15.50;99.90
58582;DHT22;44361;51.476;5.700;2022-10-17T06:54:42;15.50;99.90
58582;DHT22;44361;51.476;5.700;2022-10-17T06:57:07;15.60;99.90
58582;DHT22;44361;51.476;5.700;2022-10-17T06:59:33;15.70;99.90
58582;DHT22;44361;51.476;5.700;2022-10-17T07:02:00;15.70;99.90
58582;DHT22;44361;51.476;5.700;2022-10-17T07:04:26;15.70;99.90
58582;DHT22;44361;51.476;5.700;2022-10-17T07:06:52;15.80;99.90
58582;DHT22;44361;51.476;5.700;2022-10-17T07:09:17;15.90;99.90
58582;DHT22;44361;51.476;5.700;2022-10-17T07:11:43;15.90;99.90
58582;DHT22;44361;51.476;5.700;2022-10-17T07:14:09;16.00;99.90
58582;DHT22;44361;51.476;5.700;2022-10-17T07:16:35;16.10;99.90
58582;DHT22;44361;51.476;5.700;2022-10-17T07:19:00;16.10;99.90
58582;DHT22;44361;51.476;5.700;2022-10-17T07:21:26;16.10;99.90
58582;DHT22;44361;51.476;5.700;2022-10-17T07:23:51;16.10;99.90
58582;DHT22;44361;51.476;5.700;2022-10-17T07:26:18;16.20;99.90
58582;DHT22;44361;51.476;5.700;2022-10-17T07:28:45;16.20;99.90
58582;DHT22;44361;51.476;5.700;2022-10-17T07:31:14;16.30;99.90
58582;DHT22;44361;51.476;5.700;2022-10-17T07:33:41;16.30;99.90
58582;DHT22;44361;51.476;5.700;2022-10-17T07:36:06;16.40;99.90
58582;DHT22;44361;51.476;5.700;2022-10-17T07:38:32;16.50;99.90
58582;DHT22;44361;51.476;5.700;2022-10-17T07:41:00;16.60;99.90
58582;DHT22;44361;51.476;5.700;2022-10-17T07:43:27;16.60;99.90
58582;DHT22;44361;51.476;5.700;2022-10-17T07:45:53;16.70;99.90
58582;DHT22;44361;51.476;5.700;2022-10-17T07:48:19;16.70;99.90
58582;DHT22;44361;51.476;5.700;2022-10-17T07:50:45;16.60;99.90
58582;DHT22;44361;51.476;5.700;2022-10-17T07:53:11;16.60;99.90
58582;DHT22;44361;51.476;5.700;2022-10-17T07:55:38;16.70;99.90
58582;DHT22;44361;51.476;5.700;2022-10-17T07:58:04;16.90;99.90
58582;DHT22;44361;51.476;5.700;2022-10-17T08:00:29;16.90;99.90
58582;DHT22;44361;51.476;5.700;2022-10-17T08:02:55;17.00;99.90
58582;DHT22;44361;51.476;5.700;2022-10-17T08:05:20;17.10;99.90
58582;DHT22;44361;51.476;5.700;2022-10-17T08:07:46;17.10;99.90
58582;DHT22;44361;51.476;5.700;2022-10-17T08:10:13;17.20;99.90
58582;DHT22;44361;51.476;5.700;2022-10-17T08:12:39;17.20;99.90
58582;DHT22;44361;51.476;5.700;2022-10-17T08:15:06;17.30;99.90
58582;DHT22;44361;51.476;5.700;2022-10-17T08:17:34;17.40;99.90
58582;DHT22;44361;51.476;5.700;2022-10-17T08:19:59;17.60;99.90
58582;DHT22;44361;51.476;5.700;2022-10-17T08:22:25;17.80;99.90
58582;DHT22;44361;51.476;5.700;2022-10-17T08:24:50;18.10;99.90
58582;DHT22;44361;51.476;5.700;2022-10-17T08:27:16;18.30;99.90
58582;DHT22;44361;51.476;5.700;2022-10-17T08:29:47;18.30;99.90
58582;DHT22;44361;51.476;5.700;2022-10-17T08:32:20;18.30;99.90
58582;DHT22;44361;51.476;5.700;2022-10-17T08:34:46;18.30;99.90
58582;DHT22;44361;51.476;5.700;2022-10-17T08:37:12;18.40;99.90
58582;DHT22;44361;51.476;5.700;2022-10-17T08:39:40;18.30;99.90
58582;DHT22;44361;51.476;5.700;2022-10-17T08:47:50;18.20;99.90
58582;DHT22;44361;51.476;5.700;2022-10-17T08:50:37;18.20;99.90
58582;DHT22;44361;51.476;5.700;2022-10-17T08:53:21;18.20;99.90
58582;DHT22;44361;51.476;5.700;2022-10-17T08:55:51;18.20;99.90
58582;DHT22;44361;51.476;5.700;2022-10-17T08:58:31;18.30;99.90
58582;DHT22;44361;51.476;5.700;2022-10-17T09:01:04;18.30;99.90
58582;DHT22;44361;51.476;5.700;2022-10-17T09:04:03;18.40;99.90
58582;DHT22;44361;51.476;5.700;2022-10-17T09:12:17;18.30;99.90
58582;DHT22;44361;51.476;5.700;2022-10-17T09:15:05;18.20;99.90
58582;DHT22;44361;51.476;5.700;2022-10-17T09:17:52;18.10;99.90
58582;DHT22;44361;51.476;5.700;2022-10-17T09:20:33;18.10;99.90
58582;DHT22;44361;51.476;5.700;2022-10-17T09:23:10;18.00;99.90
58582;DHT22;44361;51.476;5.700;2022-10-17T09:25:46;17.80;99.90
58582;DHT22;44361;51.476;5.700;2022-10-17T09:30:54;17.60;99.90
58582;DHT22;44361;51.476;5.700;2022-10-17T09:33:25;17.40;99.90
58582;DHT22;44361;51.476;5.700;2022-10-17T09:35:53;17.30;99.90
58582;DHT22;44361;51.476;5.700;2022-10-17T09:38:21;17.20;99.90
58582;DHT22;44361;51.476;5.700;2022-10-17T09:40:55;17.00;99.90
58582;DHT22;44361;51.476;5.700;2022-10-17T09:43:21;17.00;99.90
58582;DHT22;44361;51.476;5.700;2022-10-17T09:46:06;16.90;99.90
58582;DHT22;44361;51.476;5.700;2022-10-17T09:48:49;16.80;99.90
58582;DHT22;44361;51.476;5.700;2022-10-17T09:51:16;16.70;99.90
58582;DHT22;44361;51.476;5.700;2022-10-17T09:53:46;16.60;99.90
58582;DHT22;44361;51.476;5.700;2022-10-17T09:56:17;16.70;99.90
58582;DHT22;44361;51.476;5.700;2022-10-17T09:58:49;16.70;99.90
58582;DHT22;44361;51.476;5.700;2022-10-17T10:01:27;16.70;99.90
58582;DHT22;44361;51.476;5.700;2022-10-17T10:04:15;16.70;99.90
58582;DHT22;44361;51.476;5.700;2022-10-17T10:07:02;16.70;99.90
58582;DHT22;44361;51.476;5.700;2022-10-17T10:09:30;16.70;99.90
58582;DHT22;44361;51.476;5.700;2022-10-17T10:11:58;16.70;99.90
58582;DHT22;44361;51.476;5.700;2022-10-17T10:14:35;16.70;99.90
58582;DHT22;44361;51.476;5.700;2022-10-17T10:17:02;16.80;99.90
58582;DHT22;44361;51.476;5.700;2022-10-17T10:19:37;16.90;99.90
58582;DHT22;44361;51.476;5.700;2022-10-17T10:22:17;16.90;99.90
58582;DHT22;44361;51.476;5.700;2022-10-17T10:24:43;16.90;99.90
58582;DHT22;44361;51.476;5.700;2022-10-17T10:27:14;16.90;99.90
58582;DHT22;44361;51.476;5.700;2022-10-17T10:29:51;16.80;99.90
58582;DHT22;44361;51.476;5.700;2022-10-17T10:32:27;16.80;99.90
58582;DHT22;44361;51.476;5.700;2022-10-17T10:37:27;16.80;99.90
58582;DHT22;44361;51.476;5.700;2022-10-17T10:39:56;16.80;99.90
58582;DHT22;44361;51.476;5.700;2022-10-17T10:42:34;16.80;99.90
58582;DHT22;44361;51.476;5.700;2022-10-17T10:45:16;16.90;99.90
58582;DHT22;44361;51.476;5.700;2022-10-17T10:47:57;17.00;99.90
58582;DHT22;44361;51.476;5.700;2022-10-17T10:50:35;17.20;99.90
58582;DHT22;44361;51.476;5.700;2022-10-17T10:56:20;17.50;99.90
58582;DHT22;44361;51.476;5.700;2022-10-17T11:07:19;17.60;99.90
58582;DHT22;44361;51.476;5.700;2022-10-17T11:12:50;17.60;99.90
58582;DHT22;44361;51.476;5.700;2022-10-17T11:15:30;17.70;99.90
58582;DHT22;44361;51.476;5.700;2022-10-17T11:18:03;17.80;99.90
58582;DHT22;44361;51.476;5.700;2022-10-17T11:20:52;17.90;99.90
58582;DHT22;44361;51.476;5.700;2022-10-17T11:23:27;17.90;99.90
58582;DHT22;44361;51.476;5.700;2022-10-17T11:25:56;17.90;99.90
58582;DHT22;44361;51.476;5.700;2022-10-17T11:28:24;18.00;99.90
58582;DHT22;44361;51.476;5.700;2022-10-17T11:36:06;17.90;99.90
58582;DHT22;44361;51.476;5.700;2022-10-17T11:38:44;17.90;99.90
58582;DHT22;44361;51.476;5.700;2022-10-17T11:41:17;17.80;99.90
58582;DHT22;44361;51.476;5.700;2022-10-17T11:43:50;17.70;99.90
58582;DHT22;44361;51.476;5.700;2022-10-17T11:46:24;17.70;99.90
58582;DHT22;44361;51.476;5.700;2022-10-17T11:49:14;17.70;99.90
58582;DHT22;44361;51.476;5.700;2022-10-17T11:52:01;17.60;99.90
58582;DHT22;44361;51.476;5.700;2022-10-17T11:54:40;17.70;99.90
58582;DHT22;44361;51.476;5.700;2022-10-17T11:57:41;17.70;99.90
58582;DHT22;44361;51.476;5.700;2022-10-17T12:05:57;17.70;99.90
58582;DHT22;44361;51.476;5.700;2022-10-17T12:08:35;17.60;99.90
58582;DHT22;44361;51.476;5.700;2022-10-17T12:13:47;17.70;99.90
58582;DHT22;44361;51.476;5.700;2022-10-17T12:19:19;17.60;99.90
58582;DHT22;44361;51.476;5.700;2022-10-17T12:21:56;17.70;99.90
58582;DHT22;44361;51.476;5.700;2022-10-17T12:24:41;17.70;99.90
58582;DHT22;44361;51.476;5.700;2022-10-17T12:30:04;17.80;99.90
58582;DHT22;44361;51.476;5.700;2022-10-17T12:32:30;17.90;99.90
58582;DHT22;44361;51.476;5.700;2022-10-17T12:34:56;18.10;99.90
58582;DHT22;44361;51.476;5.700;2022-10-17T12:46:01;18.10;99.90
58582;DHT22;44361;51.476;5.700;2022-10-17T12:51:04;18.10;99.90
58582;DHT22;44361;51.476;5.700;2022-10-17T12:56:29;18.00;99.90
58582;DHT22;44361;51.476;5.700;2022-10-17T12:58:57;18.00;99.90
58582;DHT22;44361;51.476;5.700;2022-10-17T13:01:30;18.00;99.90
58582;DHT22;44361;51.476;5.700;2022-10-17T13:03:56;18.00;99.90
58582;DHT22;44361;51.476;5.700;2022-10-17T13:06:28;18.00;99.90
58582;DHT22;44361;51.476;5.700;2022-10-17T13:09:03;18.00;99.90
58582;DHT22;44361;51.476;5.700;2022-10-17T13:11:31;18.10;99.90
58582;DHT22;44361;51.476;5.700;2022-10-17T13:14:00;18.10;99.90
58582;DHT22;44361;51.476;5.700;2022-10-17T13:16:27;18.20;99.90
58582;DHT22;44361;51.476;5.700;2022-10-17T13:18:53;18.20;99.90
58582;DHT22;44361;51.476;5.700;2022-10-17T13:21:19;18.20;99.90
58582;DHT22;44361;51.476;5.700;2022-10-17T13:23:45;18.20;99.90
58582;DHT22;44361;51.476;5.700;2022-10-17T13:26:19;18.20;99.90
58582;DHT22;44361;51.476;5.700;2022-10-17T13:29:31;18.20;99.90
58582;DHT22;44361;51.476;5.700;2022-10-17T13:31:37;18.10;99.90
58582;DHT22;44361;51.476;5.700;2022-10-17T13:34:06;18.10;99.90
58582;DHT22;44361;51.476;5.700;2022-10-17T13:36:41;18.10;99.90
58582;DHT22;44361;51.476;5.700;2022-10-17T13:39:08;18.00;99.90
58582;DHT22;44361;51.476;5.700;2022-10-17T13:41:34;18.00;99.90
58582;DHT22;44361;51.476;5.700;2022-10-17T13:44:03;17.90;99.90
58582;DHT22;44361;51.476;5.700;2022-10-17T13:46:32;17.80;99.90
58582;DHT22;44361;51.476;5.700;2022-10-17T13:48:59;17.80;99.90
58582;DHT22;44361;51.476;5.700;2022-10-17T13:51:33;17.80;99.90
58582;DHT22;44361;51.476;5.700;2022-10-17T13:53:58;17.70;99.90
58582;DHT22;44361;51.476;5.700;2022-10-17T13:56:26;17.70;99.90
58582;DHT22;44361;51.476;5.700;2022-10-17T13:58:53;17.70;99.90
58582;DHT22;44361;51.476;5.700;2022-10-17T14:01:22;17.70;99.90
58582;DHT22;44361;51.476;5.700;2022-10-17T14:03:48;17.70;99.90
58582;DHT22;44361;51.476;5.700;2022-10-17T14:06:22;17.70;99.90
58582;DHT22;44361;51.476;5.700;2022-10-17T14:08:57;17.60;99.90
58582;DHT22;44361;51.476;5.700;2022-10-17T14:11:38;17.70;99.90
58582;DHT22;44361;51.476;5.700;2022-10-17T14:14:18;17.70;99.90
58582;DHT22;44361;51.476;5.700;2022-10-17T14:16:44;17.70;99.90
58582;DHT22;44361;51.476;5.700;2022-10-17T14:19:34;17.60;99.90
58582;DHT22;44361;51.476;5.700;2022-10-17T14:24:47;17.50;99.90
58582;DHT22;44361;51.476;5.700;2022-10-17T14:29:57;17.50;99.90
58582;DHT22;44361;51.476;5.700;2022-10-17T14:32:26;17.40;99.90
58582;DHT22;44361;51.476;5.700;2022-10-17T14:34:57;17.50;99.90
58582;DHT22;44361;51.476;5.700;2022-10-17T14:39:52;17.60;99.90
58582;DHT22;44361;51.476;5.700;2022-10-17T14:42:20;17.70;99.90
58582;DHT22;44361;51.476;5.700;2022-10-17T14:44:48;17.70;99.90
58582;DHT22;44361;51.476;5.700;2022-10-17T14:47:23;17.80;99.90
58582;DHT22;44361;51.476;5.700;2022-10-17T14:50:01;17.80;99.90
58582;DHT22;44361;51.476;5.700;2022-10-17T14:52:29;17.80;99.90
58582;DHT22;44361;51.476;5.700;2022-10-17T14:54:56;17.80;99.90
58582;DHT22;44361;51.476;5.700;2022-10-17T14:57:26;17.80;99.90
58582;DHT22;44361;51.476;5.700;2022-10-17T14:59:54;17.70;99.90
58582;DHT22;44361;51.476;5.700;2022-10-17T15:02:20;17.70;99.90
58582;DHT22;44361;51.476;5.700;2022-10-17T15:04:46;17.70;99.90
58582;DHT22;44361;51.476;5.700;2022-10-17T15:07:14;17.60;99.90
58582;DHT22;44361;51.476;5.700;2022-10-17T15:09:40;17.60;99.90
58582;DHT22;44361;51.476;5.700;2022-10-17T15:12:15;17.60;99.90
58582;DHT22;44361;51.476;5.700;2022-10-17T15:14:41;17.50;99.90
58582;DHT22;44361;51.476;5.700;2022-10-17T15:19:45;17.60;99.90
58582;DHT22;44361;51.476;5.700;2022-10-17T15:22:11;17.50;99.90
58582;DHT22;44361;51.476;5.700;2022-10-17T15:24:36;17.50;99.90
58582;DHT22;44361;51.476;5.700;2022-10-17T15:27:08;17.50;99.90
58582;DHT22;44361;51.476;5.700;2022-10-17T15:29:37;17.40;99.90
58582;DHT22;44361;51.476;5.700;2022-10-17T15:32:02;17.50;99.90
58582;DHT22;44361;51.476;5.700;2022-10-17T15:34:28;17.50;99.90
58582;DHT22;44361;51.476;5.700;2022-10-17T15:36:53;17.40;99.90
58582;DHT22;44361;51.476;5.700;2022-10-17T15:39:19;17.40;99.90
58582;DHT22;44361;51.476;5.700;2022-10-17T15:41:45;17.40;99.90
58582;DHT22;44361;51.476;5.700;2022-10-17T15:44:12;17.40;99.90
58582;DHT22;44361;51.476;5.700;2022-10-17T15:46:39;17.40;99.90
58582;DHT22;44361;51.476;5.700;2022-10-17T15:49:12;17.40;99.90
58582;DHT22;44361;51.476;5.700;2022-10-17T15:51:38;17.40;99.90
58582;DHT22;44361;51.476;5.700;2022-10-17T15:54:03;17.40;99.90
58582;DHT22;44361;51.476;5.700;2022-10-17T15:56:39;17.30;99.90
58582;DHT22;44361;51.476;5.700;2022-10-17T15:59:17;17.30;99.90
58582;DHT22;44361;51.476;5.700;2022-10-17T16:01:43;17.20;99.90
58582;DHT22;44361;51.476;5.700;2022-10-17T16:04:10;17.10;99.90
58582;DHT22;44361;51.476;5.700;2022-10-17T16:06:37;17.10;99.90
58582;DHT22;44361;51.476;5.700;2022-10-17T16:09:03;17.10;99.90
58582;DHT22;44361;51.476;5.700;2022-10-17T16:11:30;17.00;99.90
58582;DHT22;44361;51.476;5.700;2022-10-17T16:13:58;17.00;99.90
58582;DHT22;44361;51.476;5.700;2022-10-17T16:16:25;17.00;99.90
58582;DHT22;44361;51.476;5.700;2022-10-17T16:18:50;16.90;99.90
58582;DHT22;44361;51.476;5.700;2022-10-17T16:21:16;16.90;99.90
58582;DHT22;44361;51.476;5.700;2022-10-17T16:23:43;16.90;99.90
58582;DHT22;44361;51.476;5.700;2022-10-17T16:26:09;16.80;99.90
58582;DHT22;44361;51.476;5.700;2022-10-17T16:28:34;16.70;99.90
58582;DHT22;44361;51.476;5.700;2022-10-17T16:31:01;16.70;99.90
58582;DHT22;44361;51.476;5.700;2022-10-17T16:33:26;16.70;99.90
58582;DHT22;44361;51.476;5.700;2022-10-17T16:35:52;16.70;99.90
58582;DHT22;44361;51.476;5.700;2022-10-17T16:38:17;16.70;99.90
58582;DHT22;44361;51.476;5.700;2022-10-17T16:40:43;16.70;99.90
58582;DHT22;44361;51.476;5.700;2022-10-17T16:43:12;16.60;99.90
58582;DHT22;44361;51.476;5.700;2022-10-17T16:45:38;16.60;99.90
58582;DHT22;44361;51.476;5.700;2022-10-17T16:48:04;16.60;99.90
58582;DHT22;44361;51.476;5.700;2022-10-17T16:50:29;16.50;99.90
58582;DHT22;44361;51.476;5.700;2022-10-17T16:53:00;16.40;99.90
58582;DHT22;44361;51.476;5.700;2022-10-17T16:55:26;16.50;99.90
58582;DHT22;44361;51.476;5.700;2022-10-17T16:57:52;16.40;99.90
58582;DHT22;44361;51.476;5.700;2022-10-17T17:00:17;16.40;99.90
58582;DHT22;44361;51.476;5.700;2022-10-17T17:02:45;16.40;99.90
58582;DHT22;44361;51.476;5.700;2022-10-17T17:05:11;16.30;99.90
58582;DHT22;44361;51.476;5.700;2022-10-17T17:07:37;16.30;99.90
58582;DHT22;44361;51.476;5.700;2022-10-17T17:10:03;16.30;99.90
58582;DHT22;44361;51.476;5.700;2022-10-17T17:12:32;16.20;99.90
58582;DHT22;44361;51.476;5.700;2022-10-17T17:14:57;16.20;99.90
58582;DHT22;44361;51.476;5.700;2022-10-17T17:17:23;16.20;99.90
58582;DHT22;44361;51.476;5.700;2022-10-17T17:19:48;16.20;99.90
58582;DHT22;44361;51.476;5.700;2022-10-17T17:22:14;16.20;99.90
58582;DHT22;44361;51.476;5.700;2022-10-17T17:24:39;16.20;99.90
58582;DHT22;44361;51.476;5.700;2022-10-17T17:27:05;16.10;99.90
58582;DHT22;44361;51.476;5.700;2022-10-17T17:29:30;16.10;99.90
58582;DHT22;44361;51.476;5.700;2022-10-17T17:31:56;16.10;99.90